Formiga, Brazil
Current Conditions -  °F | °C
As of 8:00 PM on Wednesday 22 Oct 2014 (Local Time) from SBBH Reporting Station
Clear Clear  
Wind Chill: 70°   Ceiling: Unl
Heat Index: 70°   Visibility: 6mi
Dew Point: 57°   Wind: 10mph
Humidity: 64%   Direction: 70°ENE
Pressure: 30.15"   Gusts: NA
Location:  20.46°S, 45.43°W
Report Text: SBBH 222200Z 07009KT CAVOK 21/14 Q1021
Loading
Personal Weather Stations






























Interactive Weather Map
Tropical Storm Tracking
New forecast layout! Learn more

10-Day Weather Forecast

Advertisements
Track Severe Weather on mobile